Nearby METAR Reports

 

YSCB - Canberra (civ/Mi, Australia
Distance from station: NNW 6km
Updated: Sat, 23-Jun-2018 10:00am AEST
Fog, Mostly cloudy
Fog, Mostly cloudy
 Wind from calm
Wind: Calm
Temperature: 0°C
Dew Point: 0°C
Humidity: 100%
Barometer: 1026 hPa
Summary: Fog
Clouds: Mostly cloudy
Visibility: 1 km
Cloud details: Mostly cloudy 30 m
2018/06/23 00:00 YSCB 230000Z 00000KT 0700 FG BKN001 00/M00 Q1026
YCOM - Cooma Snowy Mtns, Australia
Distance from station: S 110km
Updated: Sat, 23-Jun-2018 10:00am AEST
Clear
Clear
 Wind from NE
Wind: NE 9 km/h
Temperature: 3°C
Wind Chill: 0°C
Dew Point: -5°C
Humidity: 56%
Barometer: 1024 hPa
Clouds: Clear
Visibility: 10 km
2018/06/23 00:00 YCOM 230000Z AUTO 04005KT 9999 // NCD 03/M05 Q1024
 
YSNW - Nowra (aus-Navy), Australia
Distance from station: ENE 127km
Updated: Sat, 23-Jun-2018 10:00am AEST
Clear
Clear
 Wind from NW
Wind: NW 20 km/h
Temperature: 12°C
Dew Point: 1°C
Humidity: 47%
Barometer: 1024 hPa
Clouds: Clear
Visibility: 10 km
2018/06/23 00:00 YSNW 230000Z AUTO 32011KT 9999 // NCD 12/01 Q1024
YSWG - Wagga Wagga(Cv/M, Australia
Distance from station: W 159km
Updated: Sat, 23-Jun-2018 10:00am AEST
Clear
Clear
 Wind from E
Wind: E 9 km/h
Temperature: 6°C
Wind Chill: 4°C
Dew Point: 3°C
Humidity: 81%
Barometer: 1028 hPa
Clouds: Clear
Visibility: 10 km
2018/06/23 00:00 YSWG 230000Z AUTO 08005KT 9999 // NCD 06/03 Q1028
 
YMER - Merimbula Arpt, Australia
Distance from station: SSE 187km
Updated: Sat, 23-Jun-2018 10:00am AEST
Clear
Clear
 Wind from W
Wind: W 7 km/h
Temperature: 12°C
Dew Point: 2°C
Humidity: 51%
Barometer: 1025 hPa
Clouds: Clear
Visibility: 10 km
2018/06/23 00:00 YMER 230000Z AUTO 28004KT 9999 // NCD 12/02 Q1025
YMAY - Albury Airport, Australia
Distance from station: WSW 220km
Updated: Sat, 23-Jun-2018 10:00am AEST
Overcast
Overcast
 Wind from E
Wind: E 11 km/h
Temperature: 4°C
Wind Chill: 1°C
Dew Point: 4°C
Humidity: 100%
Barometer: 1028 hPa
Clouds: Overcast
Visibility: 0 km
Cloud details: Overcast 30 m
2018/06/23 00:00 YMAY 230000Z AUTO 10006KT 0450 // OVC001 04/04 Q1028
 
YSSY - Sydney Intl Airp, Australia
Distance from station: NE 236km
Updated: Sat, 23-Jun-2018 10:00am AEST
Clear
Clear
 Wind from WNW
Wind: WNW 19 km/h
Temperature: 14°C
Dew Point: 5°C
Humidity: 55%
Barometer: 1025 hPa
Summary: Clear
Visibility: greater than 10 km
2018/06/23 00:00 YSSY 230000Z 30010KT CAVOK 14/05 Q1025 NOSIG
YSRI - Richmond (aus-Af, Australia
Distance from station: NE 240km
Updated: Sat, 23-Jun-2018 10:00am AEST
Clear
Clear
 Wind from ESE
Wind: ESE 2 km/h
Temperature: 9°C
Dew Point: 6°C
Humidity: 82%
Barometer: 1025 hPa
Clouds: Clear
Visibility: 10 km
2018/06/23 00:00 YSRI 230000Z AUTO 12001KT 9999 // NCD 09/06 Q1025
 
YNAR - Narrandera, Australia
Distance from station: WNW 254km
Updated: Sat, 23-Jun-2018 10:00am AEST

 Wind from calm
Wind: Calm
Temperature: 7°C
Dew Point: 6°C
Humidity: 93%
Barometer: 1028 hPa
2018/06/23 00:00 YNAR 230000Z AUTO 00000KT //// // ////// 07/06 Q1028
YWGT - Wangaratta Arp, Australia
Distance from station: WSW 288km
Updated: Sat, 23-Jun-2018 10:00am AEST
Overcast
Overcast
 Wind from calm
Wind: Calm
Temperature: 3°C
Dew Point: 3°C
Humidity: 100%
Barometer: 1028 hPa
Clouds: Overcast
Visibility: 10 km
Cloud details: Overcast 30 m
2018/06/23 00:00 YWGT 230000Z AUTO 00000KT 9999 // OVC001 03/03 Q1028